createdAt,value
2023-02-22T00:00:42.796Z,12.35
2023-02-22T00:03:54.317Z,12.32
2023-02-22T00:07:01.461Z,12.27
2023-02-22T00:10:03.820Z,12.06
2023-02-22T00:13:08.358Z,11.62
2023-02-22T00:16:18.314Z,11.72
2023-02-22T00:19:20.536Z,11.91
2023-02-22T00:22:22.718Z,11.92
2023-02-22T00:25:25.172Z,12.04
2023-02-22T00:28:27.722Z,11.78
2023-02-22T00:31:29.925Z,11.82
2023-02-22T00:34:32.064Z,11.73
2023-02-22T00:37:35.724Z,11.85
2023-02-22T00:40:38.368Z,11.88
2023-02-22T00:43:41.123Z,11.78
2023-02-22T00:46:43.323Z,11.85
2023-02-22T00:49:45.554Z,12.01
2023-02-22T00:52:48.199Z,11.79
2023-02-22T00:55:53.272Z,11.88
2023-02-22T00:58:55.431Z,11.95
2023-02-22T01:01:58.529Z,11.51
2023-02-22T01:05:01.067Z,11.41
2023-02-22T01:08:06.528Z,11.55
2023-02-22T01:11:10.242Z,11.64
2023-02-22T01:14:12.436Z,11.72
2023-02-22T01:17:15.295Z,11.99
2023-02-22T01:20:18.611Z,11.83
2023-02-22T01:23:21.423Z,11.78
2023-02-22T01:26:24.913Z,11.88
2023-02-22T01:29:27.650Z,11.76
2023-02-22T01:32:29.826Z,11.74
2023-02-22T01:35:35.069Z,11.98
2023-02-22T01:38:38.527Z,12.12
2023-02-22T01:41:40.675Z,12.00
2023-02-22T01:44:42.763Z,12.03
2023-02-22T01:47:44.956Z,11.91
2023-02-22T01:51:10.919Z,11.76
2023-02-22T01:54:15.659Z,11.80
2023-02-22T01:57:31.490Z,11.69
2023-02-22T02:00:33.750Z,11.74
2023-02-22T02:03:37.795Z,11.62
2023-02-22T02:06:42.254Z,11.72
2023-02-22T02:09:53.333Z,11.90
2023-02-22T02:12:56.924Z,11.83
2023-02-22T02:16:00.329Z,11.53
2023-02-22T02:19:05.711Z,11.74
2023-02-22T02:22:29.626Z,11.95
2023-02-22T02:25:46.787Z,11.75
2023-02-22T02:29:24.895Z,11.79
2023-02-22T02:32:27.095Z,11.54
2023-02-22T02:35:55.086Z,11.53
2023-02-22T02:39:24.285Z,11.72
2023-02-22T02:42:33.318Z,11.88
2023-02-22T02:45:54.383Z,12.07
2023-02-22T02:48:59.929Z,12.08
2023-02-22T02:52:03.552Z,12.10
2023-02-22T02:55:06.963Z,12.09
2023-02-22T02:58:09.499Z,12.07
2023-02-22T03:01:12.864Z,11.81
2023-02-22T03:04:23.640Z,11.78
2023-02-22T03:07:33.694Z,11.95
2023-02-22T03:11:15.359Z,11.75
2023-02-22T03:14:26.907Z,11.65
2023-02-22T03:17:45.957Z,11.64
2023-02-22T03:20:54.682Z,11.45
2023-02-22T03:24:29.270Z,11.68
2023-02-22T03:27:43.376Z,11.56
2023-02-22T03:31:00.848Z,11.61
2023-02-22T03:34:08.802Z,11.45
2023-02-22T03:37:15.845Z,11.52
2023-02-22T03:40:26.436Z,11.65
2023-02-22T03:43:36.725Z,11.59
2023-02-22T03:46:41.297Z,11.30
2023-02-22T03:49:53.801Z,11.07
2023-02-22T03:52:59.025Z,11.23
2023-02-22T03:56:07.307Z,11.28
2023-02-22T03:59:10.836Z,11.46
2023-02-22T04:02:13.376Z,11.43
2023-02-22T04:05:15.751Z,11.45
2023-02-22T04:08:18.094Z,11.46
2023-02-22T04:11:20.743Z,11.57
2023-02-22T04:14:24.064Z,11.58
2023-02-22T04:17:26.401Z,11.59
2023-02-22T04:20:28.744Z,11.73
2023-02-22T04:23:34.093Z,11.69
2023-02-22T04:26:37.530Z,11.47
2023-02-22T04:29:41.744Z,11.47
2023-02-22T04:32:44.223Z,11.32
2023-02-22T04:35:46.943Z,11.06
2023-02-22T04:38:49.653Z,10.86
2023-02-22T04:41:51.907Z,10.71
2023-02-22T04:44:54.470Z,10.70
2023-02-22T04:47:57.155Z,10.49
2023-02-22T04:50:59.439Z,10.70
2023-02-22T04:54:04.015Z,10.60
2023-02-22T04:57:08.498Z,10.64
2023-02-22T05:00:11.296Z,10.62
2023-02-22T05:03:13.822Z,10.67
2023-02-22T05:06:17.736Z,10.89
2023-02-22T05:09:19.924Z,11.17
2023-02-22T05:12:22.122Z,11.08
2023-02-22T05:15:25.374Z,11.22
2023-02-22T05:18:28.000Z,11.47
2023-02-22T05:21:30.142Z,11.66
2023-02-22T05:24:32.399Z,11.58
2023-02-22T05:27:34.527Z,11.65
2023-02-22T05:30:39.657Z,11.64
2023-02-22T05:33:41.883Z,11.68
2023-02-22T05:36:44.222Z,11.67
2023-02-22T05:39:46.545Z,11.67
2023-02-22T05:42:49.628Z,11.64
2023-02-22T05:45:51.904Z,11.72
2023-02-22T05:48:54.062Z,11.99
2023-02-22T05:51:59.487Z,11.93
2023-02-22T05:55:01.663Z,11.87
2023-02-22T05:58:05.942Z,11.48
2023-02-22T06:01:08.156Z,11.42
2023-02-22T06:04:10.405Z,11.36
2023-02-22T06:07:14.061Z,11.27
2023-02-22T06:10:16.430Z,11.62
2023-02-22T06:13:18.676Z,11.61
2023-02-22T06:16:21.916Z,11.57
2023-02-22T06:19:24.497Z,11.49
2023-02-22T06:22:26.801Z,11.84
2023-02-22T06:25:31.479Z,11.75
2023-02-22T06:28:33.670Z,12.05
2023-02-22T06:31:36.527Z,12.26
2023-02-22T06:34:39.846Z,12.19
2023-02-22T06:37:42.087Z,12.21
2023-02-22T06:40:45.145Z,12.45
2023-02-22T06:43:47.950Z,12.77
2023-02-22T06:46:51.257Z,12.82
2023-02-22T06:49:57.268Z,13.12
2023-02-22T06:53:00.018Z,13.29
2023-02-22T06:56:02.497Z,13.10
2023-02-22T06:59:09.377Z,13.33
2023-02-22T07:02:14.045Z,13.27
2023-02-22T07:05:19.053Z,13.30
2023-02-22T07:08:21.629Z,13.39
2023-02-22T07:11:26.388Z,13.55
2023-02-22T07:14:29.053Z,13.52
2023-02-22T07:17:31.263Z,13.61
2023-02-22T07:20:33.801Z,13.56
2023-02-22T07:23:37.858Z,13.68
2023-02-22T07:26:44.150Z,13.66
2023-02-22T07:29:46.818Z,13.71
2023-02-22T07:32:49.132Z,13.66
2023-02-22T07:35:51.574Z,13.60
2023-02-22T07:38:53.724Z,13.64
2023-02-22T07:41:55.917Z,13.85
2023-02-22T07:44:59.459Z,14.14
2023-02-22T07:48:03.338Z,14.02
2023-02-22T07:51:06.079Z,13.76
2023-02-22T07:54:08.467Z,13.80
2023-02-22T07:57:10.779Z,14.19
2023-02-22T08:00:14.840Z,14.11
2023-02-22T08:03:28.944Z,14.14
2023-02-22T08:06:32.050Z,13.88
2023-02-22T08:09:37.143Z,14.06
2023-02-22T08:12:41.908Z,14.29
2023-02-22T08:15:44.328Z,14.44
2023-02-22T08:18:47.008Z,14.30
2023-02-22T08:21:49.975Z,14.41
2023-02-22T08:24:54.314Z,14.51
2023-02-22T08:28:12.460Z,14.43
2023-02-22T08:31:19.106Z,14.76
2023-02-22T08:34:22.796Z,14.84
2023-02-22T08:37:25.015Z,15.03
2023-02-22T08:40:31.168Z,15.09
2023-02-22T08:43:33.392Z,15.11
2023-02-22T08:46:37.024Z,15.20
2023-02-22T08:49:39.263Z,15.30
2023-02-22T08:52:41.514Z,15.41
2023-02-22T08:55:44.372Z,15.54
2023-02-22T08:58:49.850Z,15.62
2023-02-22T09:01:52.312Z,15.69
2023-02-22T09:05:02.692Z,15.82
2023-02-22T09:08:15.372Z,15.73
2023-02-22T09:11:18.779Z,15.67
2023-02-22T09:14:25.382Z,15.80
2023-02-22T09:17:27.652Z,15.81
2023-02-22T09:20:30.156Z,15.93
2023-02-22T09:23:36.398Z,15.98
2023-02-22T09:26:42.849Z,16.09
2023-02-22T09:29:48.307Z,16.07
2023-02-22T09:32:52.599Z,16.11
2023-02-22T09:35:55.039Z,16.11
2023-02-22T09:38:58.938Z,16.21
2023-02-22T09:42:17.136Z,16.39
2023-02-22T09:45:23.681Z,16.50
2023-02-22T09:48:31.853Z,16.73
2023-02-22T09:51:39.106Z,16.87
2023-02-22T09:54:45.674Z,16.97
2023-02-22T09:57:48.122Z,17.10
2023-02-22T10:01:05.132Z,17.24
2023-02-22T10:04:57.812Z,17.26
2023-02-22T10:08:06.078Z,17.37
2023-02-22T10:11:17.384Z,17.43
2023-02-22T10:14:33.423Z,17.36
2023-02-22T10:17:53.602Z,17.42
2023-02-22T10:21:23.497Z,17.41
2023-02-22T10:24:40.362Z,17.23
2023-02-22T10:27:48.855Z,17.12
2023-02-22T10:30:59.205Z,17.13
2023-02-22T10:34:15.354Z,17.05
2023-02-22T10:37:30.822Z,16.95
2023-02-22T10:40:33.130Z,16.77
2023-02-22T10:43:40.687Z,16.91
2023-02-22T10:46:45.986Z,16.86
2023-02-22T10:49:52.317Z,16.93
2023-02-22T10:52:55.203Z,17.06
2023-02-22T10:56:13.990Z,17.12
2023-02-22T10:59:39.255Z,17.09
2023-02-22T11:02:52.426Z,17.11
2023-02-22T11:06:26.491Z,17.11
2023-02-22T11:09:29.049Z,17.04
2023-02-22T11:12:39.857Z,16.99
2023-02-22T11:15:42.268Z,16.95
2023-02-22T11:18:46.291Z,16.93
2023-02-22T11:21:54.190Z,16.82
2023-02-22T11:24:59.920Z,16.76
2023-02-22T11:28:30.814Z,16.62
2023-02-22T11:31:33.234Z,16.67
2023-02-22T11:34:41.469Z,16.71
2023-02-22T11:37:47.530Z,16.66
2023-02-22T11:41:14.888Z,16.71
2023-02-22T11:44:29.033Z,16.71
2023-02-22T11:47:33.376Z,16.63
2023-02-22T11:51:00.270Z,16.45
2023-02-22T11:54:31.360Z,16.52
2023-02-22T11:58:13.569Z,16.41
2023-02-22T12:01:24.611Z,16.23
2023-02-22T12:05:17.965Z,16.38
2023-02-22T12:09:01.936Z,16.42
2023-02-22T12:12:04.111Z,16.48
2023-02-22T12:15:29.885Z,16.50
2023-02-22T12:18:59.624Z,16.36
2023-02-22T12:22:35.059Z,16.31
2023-02-22T12:25:40.890Z,16.28
2023-02-22T12:28:59.511Z,16.13
2023-02-22T12:32:16.894Z,16.32
2023-02-22T12:35:23.440Z,16.24
2023-02-22T12:38:25.583Z,16.10
2023-02-22T12:41:38.431Z,16.15
2023-02-22T12:44:44.325Z,16.07
2023-02-22T12:47:53.353Z,16.11
2023-02-22T12:51:15.492Z,16.07
2023-02-22T12:54:43.937Z,16.12
2023-02-22T12:57:57.234Z,16.12
2023-02-22T13:01:07.326Z,16.17
2023-02-22T13:04:20.432Z,16.30
2023-02-22T13:07:45.787Z,16.51
2023-02-22T13:10:58.097Z,16.56
2023-02-22T13:14:38.060Z,16.44
2023-02-22T13:18:21.172Z,16.32
2023-02-22T13:21:32.078Z,16.41
2023-02-22T13:24:59.110Z,16.42
2023-02-22T13:28:25.181Z,16.23
2023-02-22T13:31:39.957Z,16.22
2023-02-22T13:35:04.130Z,16.25
2023-02-22T13:38:09.122Z,16.29
2023-02-22T13:41:39.988Z,16.26
2023-02-22T13:44:51.150Z,16.13
2023-02-22T13:48:20.860Z,16.17
2023-02-22T13:51:41.518Z,16.09
2023-02-22T13:54:47.582Z,16.16
2023-02-22T13:57:53.866Z,16.09
2023-02-22T14:00:58.041Z,16.00
2023-02-22T14:04:29.346Z,16.06
2023-02-22T14:07:34.053Z,15.92
2023-02-22T14:10:59.196Z,15.97
2023-02-22T14:14:01.465Z,15.99
2023-02-22T14:17:17.917Z,15.95
2023-02-22T14:20:32.615Z,15.92
2023-02-22T14:23:34.883Z,15.91
2023-02-22T14:26:41.818Z,15.83
2023-02-22T14:29:58.102Z,15.88
2023-02-22T14:33:00.751Z,15.90
2023-02-22T14:36:03.694Z,15.82
2023-02-22T14:39:18.465Z,15.80
2023-02-22T14:42:33.747Z,15.74
2023-02-22T14:45:43.492Z,15.65
2023-02-22T14:48:46.559Z,15.69
2023-02-22T14:51:58.579Z,15.71
2023-02-22T14:55:24.141Z,15.57
2023-02-22T14:58:35.027Z,15.50
2023-02-22T15:01:53.203Z,15.58
2023-02-22T15:05:01.279Z,15.62
2023-02-22T15:08:06.477Z,15.59
2023-02-22T15:11:32.636Z,15.55
2023-02-22T15:14:37.829Z,15.53
2023-02-22T15:17:40.777Z,15.57
2023-02-22T15:20:43.041Z,15.50
2023-02-22T15:23:53.643Z,15.46
2023-02-22T15:27:02.212Z,15.38
2023-02-22T15:30:16.326Z,15.39
2023-02-22T15:33:24.293Z,15.33
2023-02-22T15:36:31.223Z,15.33
2023-02-22T15:39:36.175Z,15.35
2023-02-22T15:42:46.317Z,15.26
2023-02-22T15:45:51.086Z,15.29
2023-02-22T15:49:11.209Z,15.23
2023-02-22T15:52:21.307Z,15.22
2023-02-22T15:55:35.290Z,15.20
2023-02-22T15:58:39.055Z,15.18
2023-02-22T16:01:43.820Z,15.15
2023-02-22T16:04:54.651Z,15.16
2023-02-22T16:08:01.419Z,15.10
2023-02-22T16:11:15.878Z,15.03
2023-02-22T16:14:27.944Z,15.03
2023-02-22T16:17:44.541Z,14.99
2023-02-22T16:20:59.425Z,14.91
2023-02-22T16:24:15.055Z,14.91
2023-02-22T16:27:20.087Z,14.70
2023-02-22T16:30:33.793Z,14.74
2023-02-22T16:33:39.102Z,14.79
2023-02-22T16:36:44.822Z,14.73
2023-02-22T16:39:47.025Z,14.75
2023-02-22T16:42:50.297Z,14.72
2023-02-22T16:45:54.959Z,14.65
2023-02-22T16:49:03.354Z,14.57
2023-02-22T16:52:07.102Z,14.44
2023-02-22T16:55:10.720Z,14.37
2023-02-22T16:58:14.781Z,14.35
2023-02-22T17:01:18.460Z,14.18
2023-02-22T17:04:24.121Z,14.16
2023-02-22T17:07:30.766Z,14.07
2023-02-22T17:10:34.143Z,14.10
2023-02-22T17:13:36.355Z,14.10
2023-02-22T17:16:38.512Z,14.06
2023-02-22T17:19:40.953Z,14.02
2023-02-22T17:22:43.394Z,14.04
2023-02-22T17:25:59.989Z,13.95
2023-02-22T17:29:02.156Z,13.88
2023-02-22T17:32:04.803Z,13.85
2023-02-22T17:35:07.002Z,13.75
2023-02-22T17:38:09.582Z,13.72
2023-02-22T17:41:11.786Z,13.67
2023-02-22T17:44:13.968Z,13.62
2023-02-22T17:47:16.182Z,13.49
2023-02-22T17:50:20.046Z,13.50
2023-02-22T17:53:24.585Z,13.39
2023-02-22T17:56:29.080Z,13.44
2023-02-22T17:59:31.560Z,13.30
2023-02-22T18:02:34.575Z,13.19
2023-02-22T18:05:42.334Z,13.16
2023-02-22T18:08:44.489Z,13.20
2023-02-22T18:11:47.657Z,13.20
2023-02-22T18:14:50.042Z,13.20
2023-02-22T18:17:52.450Z,13.16
2023-02-22T18:20:59.504Z,13.09
2023-02-22T18:24:04.660Z,13.03
2023-02-22T18:27:07.086Z,13.09
2023-02-22T18:30:11.907Z,13.07
2023-02-22T18:33:15.105Z,12.97
2023-02-22T18:36:23.154Z,12.90
2023-02-22T18:39:25.674Z,12.93
2023-02-22T18:42:28.934Z,13.02
2023-02-22T18:45:31.044Z,12.86
2023-02-22T18:48:33.271Z,12.79
2023-02-22T18:51:35.894Z,12.74
2023-02-22T18:54:39.899Z,12.73
2023-02-22T18:57:42.040Z,12.75
2023-02-22T19:00:44.162Z,12.77
2023-02-22T19:03:47.268Z,12.78
2023-02-22T19:06:49.837Z,12.72
2023-02-22T19:09:52.305Z,12.71
2023-02-22T19:12:54.573Z,12.62
2023-02-22T19:15:56.816Z,12.50
2023-02-22T19:18:59.132Z,12.59
2023-02-22T19:22:01.326Z,12.60
2023-02-22T19:25:04.530Z,12.58
2023-02-22T19:28:06.680Z,12.63
2023-02-22T19:31:21.245Z,12.54
2023-02-22T19:34:24.402Z,12.38
2023-02-22T19:37:27.698Z,12.41
2023-02-22T19:40:29.945Z,12.39
2023-02-22T19:43:32.124Z,12.49
2023-02-22T19:46:34.560Z,12.45
2023-02-22T19:49:37.582Z,12.60
2023-02-22T19:52:39.754Z,12.55
2023-02-22T19:55:42.148Z,12.55
2023-02-22T19:58:46.021Z,12.60
2023-02-22T20:01:48.946Z,12.69
2023-02-22T20:04:51.318Z,12.66
2023-02-22T20:07:53.536Z,12.74
2023-02-22T20:10:58.873Z,12.71
2023-02-22T20:14:01.102Z,12.82
2023-02-22T20:17:04.928Z,12.57
2023-02-22T20:20:07.790Z,12.59
2023-02-22T20:23:10.047Z,12.60
2023-02-22T20:26:18.014Z,12.62
2023-02-22T20:29:21.321Z,12.67
2023-02-22T20:32:24.606Z,12.58
2023-02-22T20:35:27.936Z,12.62
2023-02-22T20:38:30.158Z,12.61
2023-02-22T20:41:34.359Z,12.71
2023-02-22T20:44:36.477Z,12.63
2023-02-22T20:47:38.636Z,12.72
2023-02-22T20:50:40.869Z,12.74
2023-02-22T20:53:44.890Z,12.59
2023-02-22T20:56:47.732Z,12.69
2023-02-22T20:59:50.021Z,12.69
2023-02-22T21:02:52.210Z,12.63
2023-02-22T21:05:54.445Z,12.52
2023-02-22T21:09:00.144Z,12.57
2023-02-22T21:12:02.492Z,12.46
2023-02-22T21:15:04.823Z,12.68
2023-02-22T21:18:06.954Z,12.77
2023-02-22T21:21:12.577Z,12.72
2023-02-22T21:24:14.783Z,12.63
2023-02-22T21:27:16.957Z,12.56
2023-02-22T21:30:19.252Z,12.70
2023-02-22T21:33:21.477Z,12.75
2023-02-22T21:36:26.936Z,12.67
2023-02-22T21:39:29.233Z,12.60
2023-02-22T21:42:31.522Z,12.75
2023-02-22T21:45:34.408Z,12.80
2023-02-22T21:48:45.084Z,12.73
2023-02-22T21:51:47.195Z,12.59
2023-02-22T21:54:49.300Z,12.61
2023-02-22T21:57:51.672Z,12.68
2023-02-22T22:00:53.862Z,12.66
2023-02-22T22:03:59.530Z,12.70
2023-02-22T22:07:03.802Z,12.58
2023-02-22T22:10:06.769Z,12.61
2023-02-22T22:13:09.094Z,12.60
2023-02-22T22:16:14.842Z,12.76
2023-02-22T22:19:17.734Z,12.74
2023-02-22T22:22:20.394Z,12.69
2023-02-22T22:25:24.369Z,12.74
2023-02-22T22:28:27.010Z,12.69
2023-02-22T22:31:29.271Z,12.66
2023-02-22T22:34:34.235Z,12.63
2023-02-22T22:37:36.396Z,12.70
2023-02-22T22:40:39.080Z,12.73
2023-02-22T22:43:42.239Z,12.64
2023-02-22T22:46:49.072Z,12.59
2023-02-22T22:49:52.860Z,12.64
2023-02-22T22:52:55.686Z,12.46
2023-02-22T22:56:03.811Z,12.55
2023-02-22T22:59:07.742Z,12.58
2023-02-22T23:02:11.359Z,12.62
2023-02-22T23:05:15.783Z,12.57
2023-02-22T23:08:18.470Z,12.63
2023-02-22T23:11:20.617Z,12.62
2023-02-22T23:14:26.082Z,12.56
2023-02-22T23:17:31.408Z,12.45
2023-02-22T23:20:38.578Z,12.52
2023-02-22T23:23:41.263Z,12.48
2023-02-22T23:26:53.673Z,12.41
2023-02-22T23:29:55.870Z,12.45
2023-02-22T23:33:01.202Z,12.53
2023-02-22T23:36:04.440Z,12.42
2023-02-22T23:39:06.860Z,12.45
2023-02-22T23:42:09.101Z,12.39
2023-02-22T23:45:22.495Z,12.28
2023-02-22T23:48:24.703Z,12.29
2023-02-22T23:51:27.046Z,12.39
2023-02-22T23:54:36.088Z,12.20
2023-02-22T23:57:43.090Z,12.08
